TGPY/GND METAR and TAF weather

Enter ICAO airport designator
Station Type Date Time Source
TGPY METAR 2022/06/27 06:00 UTC NOAA

TGPY 270600Z 09017KT 9999 VCSH VCTS FEW012CB BKN032 27/25 Q1012 NOSIG RMK CB-S SW LT SEEN-SW VCSH-SW


Station Type Date Time Source
TGPY Decoded METAR 2022/06/27 06:00 UTC NOAA

Point Salines Airport, Grenada (TGPY) 12-00N 061-47W 7M
Jun 27, 2022 - 02:00 AM EDT / 2022.06.27 0600 UTC
Wind: from the E (090 degrees) at 20 MPH (17 KT):0
Visibility: greater than 7 mile(s):0
Sky conditions: mostly cloudy
Weather: showers in the vicinity; thunder in the vicinity; Cumulonimbus clouds observed
Temperature: 80 F (27 C)
Dew Point: 77 F (25 C)
Relative Humidity: 88%
Pressure (altimeter): 29.88 in. Hg (1012 hPa)
ob: TGPY 270600Z 09017KT 9999 VCSH VCTS FEW012CB BKN032 27/25 Q1012 NOSIG RMK CB-S SW LT SEEN-SW VCSH-SW
cycle: 6

Station Type Date Time Source
TGPY TAF 2022/06/27 06:33 UTC NOAA

TAF TGPY 270214Z 2706/2806 10012KT 9999 FEW012CB BKN016 BKN035
TEMPO 2706/2710 5000 SHRA TS FEW010CB BKN016 BKN035
BECMG 2710/2712 11016KT FEW012CB BKN018 BKN035
BECMG 2723/2801 07010KT SCT018

Example: see airport list